sensor_id;sensor_type;location;lat;lon;timestamp;P1;durP1;ratioP1;P2;durP2;ratioP2
1024;SDS011;501;48.214;11.350;2023-05-10T00:01:28;0.83;;;0.83;;
1024;SDS011;501;48.214;11.350;2023-05-10T00:03:53;1.20;;;1.10;;
1024;SDS011;501;48.214;11.350;2023-05-10T00:06:19;2.83;;;1.63;;
1024;SDS011;501;48.214;11.350;2023-05-10T00:08:45;1.20;;;1.10;;
1024;SDS011;501;48.214;11.350;2023-05-10T00:11:10;1.17;;;0.97;;
1024;SDS011;501;48.214;11.350;2023-05-10T00:13:36;1.00;;;0.93;;
1024;SDS011;501;48.214;11.350;2023-05-10T00:16:02;1.30;;;1.20;;
1024;SDS011;501;48.214;11.350;2023-05-10T00:18:27;1.10;;;1.00;;
1024;SDS011;501;48.214;11.350;2023-05-10T00:20:53;0.80;;;0.80;;
1024;SDS011;501;48.214;11.350;2023-05-10T00:23:18;1.20;;;1.10;;
1024;SDS011;501;48.214;11.350;2023-05-10T00:25:44;1.33;;;0.87;;
1024;SDS011;501;48.214;11.350;2023-05-10T00:28:10;1.63;;;1.37;;
1024;SDS011;501;48.214;11.350;2023-05-10T00:30:35;2.40;;;1.03;;
1024;SDS011;501;48.214;11.350;2023-05-10T00:33:01;1.07;;;0.97;;
1024;SDS011;501;48.214;11.350;2023-05-10T00:35:26;1.17;;;1.07;;
1024;SDS011;501;48.214;11.350;2023-05-10T00:37:52;1.33;;;0.90;;
1024;SDS011;501;48.214;11.350;2023-05-10T00:40:18;1.00;;;1.00;;
1024;SDS011;501;48.214;11.350;2023-05-10T00:42:43;0.73;;;0.70;;
1024;SDS011;501;48.214;11.350;2023-05-10T00:45:09;3.23;;;0.60;;
1024;SDS011;501;48.214;11.350;2023-05-10T00:47:35;0.77;;;0.77;;
1024;SDS011;501;48.214;11.350;2023-05-10T00:50:00;0.90;;;0.90;;
1024;SDS011;501;48.214;11.350;2023-05-10T00:52:27;0.90;;;0.90;;
1024;SDS011;501;48.214;11.350;2023-05-10T00:54:54;0.97;;;0.70;;
1024;SDS011;501;48.214;11.350;2023-05-10T00:57:20;1.37;;;1.03;;
1024;SDS011;501;48.214;11.350;2023-05-10T00:59:47;1.10;;;1.00;;
1024;SDS011;501;48.214;11.350;2023-05-10T01:02:13;0.80;;;0.80;;
1024;SDS011;501;48.214;11.350;2023-05-10T01:04:39;0.50;;;0.50;;
1024;SDS011;501;48.214;11.350;2023-05-10T01:07:05;0.87;;;0.80;;
1024;SDS011;501;48.214;11.350;2023-05-10T01:09:31;1.13;;;0.90;;
1024;SDS011;501;48.214;11.350;2023-05-10T01:12:00;0.90;;;0.80;;
1024;SDS011;501;48.214;11.350;2023-05-10T01:14:26;1.10;;;0.80;;
1024;SDS011;501;48.214;11.350;2023-05-10T01:16:53;1.00;;;1.00;;
1024;SDS011;501;48.214;11.350;2023-05-10T01:19:22;0.70;;;0.70;;
1024;SDS011;501;48.214;11.350;2023-05-10T01:21:53;0.50;;;0.50;;
1024;SDS011;501;48.214;11.350;2023-05-10T01:36:05;0.40;;;0.40;;
1024;SDS011;501;48.214;11.350;2023-05-10T01:44:23;1.17;;;0.40;;
1024;SDS011;501;48.214;11.350;2023-05-10T01:47:20;0.60;;;0.60;;
1024;SDS011;501;48.214;11.350;2023-05-10T01:49:50;0.40;;;0.40;;
1024;SDS011;501;48.214;11.350;2023-05-10T01:52:18;1.90;;;0.80;;
1024;SDS011;501;48.214;11.350;2023-05-10T01:55:04;0.67;;;0.63;;
1024;SDS011;501;48.214;11.350;2023-05-10T01:57:37;3.60;;;0.70;;
1024;SDS011;501;48.214;11.350;2023-05-10T02:00:07;2.67;;;0.63;;
1024;SDS011;501;48.214;11.350;2023-05-10T02:02:39;0.63;;;0.63;;
1024;SDS011;501;48.214;11.350;2023-05-10T02:05:07;0.50;;;0.40;;
1024;SDS011;501;48.214;11.350;2023-05-10T02:07:34;0.50;;;0.50;;
1024;SDS011;501;48.214;11.350;2023-05-10T02:10:02;1.07;;;0.50;;
1024;SDS011;501;48.214;11.350;2023-05-10T02:12:29;0.73;;;0.50;;
1024;SDS011;501;48.214;11.350;2023-05-10T02:15:00;0.40;;;0.40;;
1024;SDS011;501;48.214;11.350;2023-05-10T02:17:28;0.60;;;0.60;;
1024;SDS011;501;48.214;11.350;2023-05-10T02:19:55;0.63;;;0.63;;
1024;SDS011;501;48.214;11.350;2023-05-10T02:22:22;0.40;;;0.40;;
1024;SDS011;501;48.214;11.350;2023-05-10T02:24:50;1.23;;;0.60;;
1024;SDS011;501;48.214;11.350;2023-05-10T02:27:16;0.80;;;0.60;;
1024;SDS011;501;48.214;11.350;2023-05-10T02:29:43;0.60;;;0.60;;
1024;SDS011;501;48.214;11.350;2023-05-10T02:32:10;1.13;;;0.60;;
1024;SDS011;501;48.214;11.350;2023-05-10T02:34:37;0.50;;;0.50;;
1024;SDS011;501;48.214;11.350;2023-05-10T02:37:04;0.43;;;0.43;;
1024;SDS011;501;48.214;11.350;2023-05-10T02:39:31;0.50;;;0.50;;
1024;SDS011;501;48.214;11.350;2023-05-10T02:41:57;0.40;;;0.40;;
1024;SDS011;501;48.214;11.350;2023-05-10T02:44:23;0.50;;;0.50;;
1024;SDS011;501;48.214;11.350;2023-05-10T02:46:52;0.50;;;0.50;;
1024;SDS011;501;48.214;11.350;2023-05-10T02:49:20;0.80;;;0.80;;
1024;SDS011;501;48.214;11.350;2023-05-10T02:51:47;0.70;;;0.70;;
1024;SDS011;501;48.214;11.350;2023-05-10T02:54:18;0.60;;;0.60;;
1024;SDS011;501;48.214;11.350;2023-05-10T02:56:51;1.00;;;0.50;;
1024;SDS011;501;48.214;11.350;2023-05-10T02:59:25;2.03;;;0.83;;
1024;SDS011;501;48.214;11.350;2023-05-10T03:01:51;0.50;;;0.50;;
1024;SDS011;501;48.214;11.350;2023-05-10T03:04:17;0.57;;;0.57;;
1024;SDS011;501;48.214;11.350;2023-05-10T03:06:43;1.07;;;0.80;;
1024;SDS011;501;48.214;11.350;2023-05-10T03:09:09;0.50;;;0.50;;
1024;SDS011;501;48.214;11.350;2023-05-10T03:17:30;0.50;;;0.50;;
1024;SDS011;501;48.214;11.350;2023-05-10T03:20:08;0.80;;;0.50;;
1024;SDS011;501;48.214;11.350;2023-05-10T03:22:47;1.47;;;0.90;;
1024;SDS011;501;48.214;11.350;2023-05-10T03:25:18;0.60;;;0.60;;
1024;SDS011;501;48.214;11.350;2023-05-10T03:27:47;0.60;;;0.40;;
1024;SDS011;501;48.214;11.350;2023-05-10T03:30:13;2.00;;;0.50;;
1024;SDS011;501;48.214;11.350;2023-05-10T03:32:39;0.60;;;0.60;;
1024;SDS011;501;48.214;11.350;2023-05-10T03:35:09;1.53;;;0.70;;
1024;SDS011;501;48.214;11.350;2023-05-10T03:37:36;1.10;;;0.70;;
1024;SDS011;501;48.214;11.350;2023-05-10T03:40:02;0.87;;;0.70;;
1024;SDS011;501;48.214;11.350;2023-05-10T03:42:28;0.60;;;0.60;;
1024;SDS011;501;48.214;11.350;2023-05-10T03:44:54;0.60;;;0.50;;
1024;SDS011;501;48.214;11.350;2023-05-10T03:47:20;0.87;;;0.60;;
1024;SDS011;501;48.214;11.350;2023-05-10T03:49:45;0.50;;;0.50;;
1024;SDS011;501;48.214;11.350;2023-05-10T03:52:11;0.50;;;0.50;;
1024;SDS011;501;48.214;11.350;2023-05-10T03:54:37;0.77;;;0.63;;
1024;SDS011;501;48.214;11.350;2023-05-10T03:57:03;0.60;;;0.50;;
1024;SDS011;501;48.214;11.350;2023-05-10T03:59:29;0.80;;;0.80;;
1024;SDS011;501;48.214;11.350;2023-05-10T04:01:55;0.70;;;0.70;;
1024;SDS011;501;48.214;11.350;2023-05-10T04:04:20;1.80;;;1.03;;
1024;SDS011;501;48.214;11.350;2023-05-10T04:06:47;0.60;;;0.60;;
1024;SDS011;501;48.214;11.350;2023-05-10T04:09:12;0.60;;;0.50;;
1024;SDS011;501;48.214;11.350;2023-05-10T04:11:38;0.80;;;0.80;;
1024;SDS011;501;48.214;11.350;2023-05-10T04:14:04;1.07;;;0.63;;
1024;SDS011;501;48.214;11.350;2023-05-10T04:16:30;0.67;;;0.67;;
1024;SDS011;501;48.214;11.350;2023-05-10T04:18:55;1.07;;;0.90;;
1024;SDS011;501;48.214;11.350;2023-05-10T04:21:21;0.63;;;0.60;;
1024;SDS011;501;48.214;11.350;2023-05-10T04:23:47;1.23;;;0.80;;
1024;SDS011;501;48.214;11.350;2023-05-10T04:26:13;0.60;;;0.60;;
1024;SDS011;501;48.214;11.350;2023-05-10T04:28:38;0.70;;;0.60;;
1024;SDS011;501;48.214;11.350;2023-05-10T04:31:05;0.63;;;0.60;;
1024;SDS011;501;48.214;11.350;2023-05-10T04:33:32;0.57;;;0.57;;
1024;SDS011;501;48.214;11.350;2023-05-10T04:35:58;0.60;;;0.50;;
1024;SDS011;501;48.214;11.350;2023-05-10T04:38:23;0.57;;;0.57;;
1024;SDS011;501;48.214;11.350;2023-05-10T04:40:49;0.40;;;0.37;;
1024;SDS011;501;48.214;11.350;2023-05-10T04:43:15;0.50;;;0.50;;
1024;SDS011;501;48.214;11.350;2023-05-10T04:45:41;0.47;;;0.47;;
1024;SDS011;501;48.214;11.350;2023-05-10T04:48:06;0.50;;;0.50;;
1024;SDS011;501;48.214;11.350;2023-05-10T04:50:32;2.83;;;0.70;;
1024;SDS011;501;48.214;11.350;2023-05-10T04:52:58;0.80;;;0.60;;
1024;SDS011;501;48.214;11.350;2023-05-10T04:55:24;0.53;;;0.50;;
1024;SDS011;501;48.214;11.350;2023-05-10T04:57:50;0.30;;;0.30;;
1024;SDS011;501;48.214;11.350;2023-05-10T05:00:15;0.60;;;0.60;;
1024;SDS011;501;48.214;11.350;2023-05-10T05:02:42;0.40;;;0.40;;
1024;SDS011;501;48.214;11.350;2023-05-10T05:05:11;1.07;;;0.40;;
1024;SDS011;501;48.214;11.350;2023-05-10T05:07:37;1.37;;;0.60;;
1024;SDS011;501;48.214;11.350;2023-05-10T05:10:06;1.13;;;0.37;;
1024;SDS011;501;48.214;11.350;2023-05-10T05:12:32;0.50;;;0.43;;
1024;SDS011;501;48.214;11.350;2023-05-10T05:14:58;1.27;;;0.40;;
1024;SDS011;501;48.214;11.350;2023-05-10T05:17:24;0.50;;;0.43;;
1024;SDS011;501;48.214;11.350;2023-05-10T05:19:49;0.50;;;0.50;;
1024;SDS011;501;48.214;11.350;2023-05-10T05:22:15;0.60;;;0.60;;
1024;SDS011;501;48.214;11.350;2023-05-10T05:24:41;0.57;;;0.43;;
1024;SDS011;501;48.214;11.350;2023-05-10T05:27:06;0.67;;;0.53;;
1024;SDS011;501;48.214;11.350;2023-05-10T05:29:32;0.97;;;0.70;;
1024;SDS011;501;48.214;11.350;2023-05-10T05:31:58;0.57;;;0.57;;
1024;SDS011;501;48.214;11.350;2023-05-10T05:34:23;0.50;;;0.43;;
1024;SDS011;501;48.214;11.350;2023-05-10T05:36:50;0.50;;;0.33;;
1024;SDS011;501;48.214;11.350;2023-05-10T05:39:15;0.57;;;0.57;;
1024;SDS011;501;48.214;11.350;2023-05-10T05:41:41;0.40;;;0.37;;
1024;SDS011;501;48.214;11.350;2023-05-10T05:44:07;0.50;;;0.50;;
1024;SDS011;501;48.214;11.350;2023-05-10T05:46:33;0.73;;;0.50;;
1024;SDS011;501;48.214;11.350;2023-05-10T05:48:58;0.67;;;0.50;;
1024;SDS011;501;48.214;11.350;2023-05-10T05:51:24;0.50;;;0.50;;
1024;SDS011;501;48.214;11.350;2023-05-10T05:53:50;0.70;;;0.67;;
1024;SDS011;501;48.214;11.350;2023-05-10T05:56:16;0.40;;;0.30;;
1024;SDS011;501;48.214;11.350;2023-05-10T05:58:48;0.67;;;0.67;;
1024;SDS011;501;48.214;11.350;2023-05-10T06:01:17;2.93;;;0.53;;
1024;SDS011;501;48.214;11.350;2023-05-10T06:03:43;0.63;;;0.60;;
1024;SDS011;501;48.214;11.350;2023-05-10T06:06:09;10.53;;;1.10;;
1024;SDS011;501;48.214;11.350;2023-05-10T06:08:34;1.77;;;0.63;;
1024;SDS011;501;48.214;11.350;2023-05-10T06:11:00;0.87;;;0.87;;
1024;SDS011;501;48.214;11.350;2023-05-10T06:13:26;1.03;;;0.77;;
1024;SDS011;501;48.214;11.350;2023-05-10T06:15:57;0.80;;;0.80;;
1024;SDS011;501;48.214;11.350;2023-05-10T06:18:23;0.60;;;0.60;;
1024;SDS011;501;48.214;11.350;2023-05-10T06:20:49;0.60;;;0.60;;
1024;SDS011;501;48.214;11.350;2023-05-10T06:23:15;2.70;;;1.13;;
1024;SDS011;501;48.214;11.350;2023-05-10T06:25:41;0.63;;;0.63;;
1024;SDS011;501;48.214;11.350;2023-05-10T06:28:06;1.67;;;0.97;;
1024;SDS011;501;48.214;11.350;2023-05-10T06:30:32;0.60;;;0.47;;
1024;SDS011;501;48.214;11.350;2023-05-10T06:32:57;0.67;;;0.67;;
1024;SDS011;501;48.214;11.350;2023-05-10T06:35:23;0.70;;;0.70;;
1024;SDS011;501;48.214;11.350;2023-05-10T06:37:49;2.80;;;1.10;;
1024;SDS011;501;48.214;11.350;2023-05-10T06:40:15;0.83;;;0.80;;
1024;SDS011;501;48.214;11.350;2023-05-10T06:42:41;0.90;;;0.90;;
1024;SDS011;501;48.214;11.350;2023-05-10T06:45:07;0.80;;;0.80;;
1024;SDS011;501;48.214;11.350;2023-05-10T06:47:34;1.23;;;0.80;;
1024;SDS011;501;48.214;11.350;2023-05-10T06:49:59;0.73;;;0.73;;
1024;SDS011;501;48.214;11.350;2023-05-10T06:52:25;1.30;;;1.00;;
1024;SDS011;501;48.214;11.350;2023-05-10T06:54:51;0.97;;;0.93;;
1024;SDS011;501;48.214;11.350;2023-05-10T06:57:16;2.40;;;1.00;;
1024;SDS011;501;48.214;11.350;2023-05-10T06:59:42;4.63;;;1.43;;
1024;SDS011;501;48.214;11.350;2023-05-10T07:02:08;1.20;;;1.10;;
1024;SDS011;501;48.214;11.350;2023-05-10T07:04:34;1.37;;;1.00;;
1024;SDS011;501;48.214;11.350;2023-05-10T07:06:59;5.23;;;1.47;;
1024;SDS011;501;48.214;11.350;2023-05-10T07:09:25;1.97;;;1.30;;
1024;SDS011;501;48.214;11.350;2023-05-10T07:11:51;1.67;;;1.57;;
1024;SDS011;501;48.214;11.350;2023-05-10T07:14:17;1.50;;;1.00;;
1024;SDS011;501;48.214;11.350;2023-05-10T07:16:42;1.30;;;1.20;;
1024;SDS011;501;48.214;11.350;2023-05-10T07:19:09;1.37;;;1.27;;
1024;SDS011;501;48.214;11.350;2023-05-10T07:21:35;1.47;;;1.20;;
1024;SDS011;501;48.214;11.350;2023-05-10T07:24:01;1.10;;;1.10;;
1024;SDS011;501;48.214;11.350;2023-05-10T07:26:27;1.00;;;0.90;;
1024;SDS011;501;48.214;11.350;2023-05-10T07:28:52;1.70;;;1.20;;
1024;SDS011;501;48.214;11.350;2023-05-10T07:31:18;1.07;;;0.90;;
1024;SDS011;501;48.214;11.350;2023-05-10T07:33:43;1.20;;;0.90;;
1024;SDS011;501;48.214;11.350;2023-05-10T07:36:09;1.50;;;1.40;;
1024;SDS011;501;48.214;11.350;2023-05-10T07:38:35;1.00;;;1.00;;
1024;SDS011;501;48.214;11.350;2023-05-10T07:41:00;1.90;;;1.37;;
1024;SDS011;501;48.214;11.350;2023-05-10T07:43:26;1.93;;;0.90;;
1024;SDS011;501;48.214;11.350;2023-05-10T07:45:52;2.43;;;0.90;;
1024;SDS011;501;48.214;11.350;2023-05-10T07:48:17;0.73;;;0.73;;
1024;SDS011;501;48.214;11.350;2023-05-10T07:50:43;1.23;;;1.00;;
1024;SDS011;501;48.214;11.350;2023-05-10T07:53:09;1.10;;;1.00;;
1024;SDS011;501;48.214;11.350;2023-05-10T07:55:34;0.80;;;0.80;;
1024;SDS011;501;48.214;11.350;2023-05-10T07:58:00;2.17;;;1.20;;
1024;SDS011;501;48.214;11.350;2023-05-10T08:00:26;0.77;;;0.70;;
1024;SDS011;501;48.214;11.350;2023-05-10T08:02:51;0.70;;;0.70;;
1024;SDS011;501;48.214;11.350;2023-05-10T08:05:17;0.67;;;0.60;;
1024;SDS011;501;48.214;11.350;2023-05-10T08:07:43;1.03;;;0.70;;
1024;SDS011;501;48.214;11.350;2023-05-10T08:10:09;0.67;;;0.60;;
1024;SDS011;501;48.214;11.350;2023-05-10T08:12:38;3.90;;;0.70;;
1024;SDS011;501;48.214;11.350;2023-05-10T08:15:04;1.03;;;0.90;;
1024;SDS011;501;48.214;11.350;2023-05-10T08:17:31;1.23;;;0.70;;
1024;SDS011;501;48.214;11.350;2023-05-10T08:19:57;0.60;;;0.60;;
1024;SDS011;501;48.214;11.350;2023-05-10T08:22:23;0.90;;;0.90;;
1024;SDS011;501;48.214;11.350;2023-05-10T08:24:48;0.50;;;0.50;;
1024;SDS011;501;48.214;11.350;2023-05-10T08:27:14;1.57;;;0.70;;
1024;SDS011;501;48.214;11.350;2023-05-10T08:29:39;0.80;;;0.80;;
1024;SDS011;501;48.214;11.350;2023-05-10T08:32:05;1.60;;;0.97;;
1024;SDS011;501;48.214;11.350;2023-05-10T08:34:31;0.87;;;0.87;;
1024;SDS011;501;48.214;11.350;2023-05-10T08:36:56;0.73;;;0.73;;
1024;SDS011;501;48.214;11.350;2023-05-10T08:39:22;0.90;;;0.90;;
1024;SDS011;501;48.214;11.350;2023-05-10T08:41:48;0.70;;;0.70;;
1024;SDS011;501;48.214;11.350;2023-05-10T08:44:17;0.83;;;0.70;;
1024;SDS011;501;48.214;11.350;2023-05-10T08:46:45;1.20;;;0.90;;
1024;SDS011;501;48.214;11.350;2023-05-10T08:49:13;1.17;;;0.57;;
1024;SDS011;501;48.214;11.350;2023-05-10T08:51:47;0.90;;;0.50;;
1024;SDS011;501;48.214;11.350;2023-05-10T08:54:16;0.90;;;0.90;;
1024;SDS011;501;48.214;11.350;2023-05-10T08:56:42;0.60;;;0.60;;
1024;SDS011;501;48.214;11.350;2023-05-10T08:59:08;0.70;;;0.70;;
1024;SDS011;501;48.214;11.350;2023-05-10T09:01:35;0.63;;;0.60;;
1024;SDS011;501;48.214;11.350;2023-05-10T09:04:01;2.37;;;0.73;;
1024;SDS011;501;48.214;11.350;2023-05-10T09:06:27;0.60;;;0.60;;
1024;SDS011;501;48.214;11.350;2023-05-10T09:08:53;1.23;;;0.83;;
1024;SDS011;501;48.214;11.350;2023-05-10T09:11:20;2.37;;;0.63;;
1024;SDS011;501;48.214;11.350;2023-05-10T09:13:47;1.30;;;1.00;;
1024;SDS011;501;48.214;11.350;2023-05-10T09:16:15;0.97;;;0.90;;
1024;SDS011;501;48.214;11.350;2023-05-10T09:18:41;1.40;;;0.97;;
1024;SDS011;501;48.214;11.350;2023-05-10T09:21:06;1.07;;;0.97;;
1024;SDS011;501;48.214;11.350;2023-05-10T09:23:32;1.10;;;0.83;;
1024;SDS011;501;48.214;11.350;2023-05-10T09:26:02;0.80;;;0.57;;
1024;SDS011;501;48.214;11.350;2023-05-10T09:31:21;1.77;;;0.97;;
1024;SDS011;501;48.214;11.350;2023-05-10T09:33:48;0.73;;;0.60;;
1024;SDS011;501;48.214;11.350;2023-05-10T09:36:15;0.50;;;0.50;;
1024;SDS011;501;48.214;11.350;2023-05-10T09:41:22;1.60;;;0.77;;
1024;SDS011;501;48.214;11.350;2023-05-10T09:43:50;4.00;;;1.00;;
1024;SDS011;501;48.214;11.350;2023-05-10T09:46:20;1.87;;;1.00;;
1024;SDS011;501;48.214;11.350;2023-05-10T09:48:46;0.73;;;0.73;;
1024;SDS011;501;48.214;11.350;2023-05-10T09:51:19;0.80;;;0.80;;
1024;SDS011;501;48.214;11.350;2023-05-10T09:53:46;0.70;;;0.70;;
1024;SDS011;501;48.214;11.350;2023-05-10T09:56:11;1.07;;;0.80;;
1024;SDS011;501;48.214;11.350;2023-05-10T09:58:37;0.87;;;0.77;;
1024;SDS011;501;48.214;11.350;2023-05-10T10:01:04;1.33;;;1.23;;
1024;SDS011;501;48.214;11.350;2023-05-10T10:03:35;1.27;;;0.80;;
1024;SDS011;501;48.214;11.350;2023-05-10T10:06:07;0.70;;;0.70;;
1024;SDS011;501;48.214;11.350;2023-05-10T10:08:33;0.80;;;0.80;;
1024;SDS011;501;48.214;11.350;2023-05-10T10:11:00;7.33;;;0.93;;
1024;SDS011;501;48.214;11.350;2023-05-10T10:13:26;0.90;;;0.90;;
1024;SDS011;501;48.214;11.350;2023-05-10T10:15:52;1.10;;;0.90;;
1024;SDS011;501;48.214;11.350;2023-05-10T10:18:19;0.70;;;0.70;;
1024;SDS011;501;48.214;11.350;2023-05-10T10:20:51;1.27;;;0.63;;
1024;SDS011;501;48.214;11.350;2023-05-10T10:23:19;0.80;;;0.80;;
1024;SDS011;501;48.214;11.350;2023-05-10T10:25:44;0.70;;;0.70;;
1024;SDS011;501;48.214;11.350;2023-05-10T10:30:51;0.80;;;0.80;;
1024;SDS011;501;48.214;11.350;2023-05-10T10:33:40;0.60;;;0.60;;
1024;SDS011;501;48.214;11.350;2023-05-10T10:36:10;1.00;;;0.90;;
1024;SDS011;501;48.214;11.350;2023-05-10T10:38:54;0.83;;;0.83;;
1024;SDS011;501;48.214;11.350;2023-05-10T10:49:30;1.70;;;1.10;;
1024;SDS011;501;48.214;11.350;2023-05-10T10:54:41;0.80;;;0.80;;
1024;SDS011;501;48.214;11.350;2023-05-10T10:57:12;2.10;;;1.10;;
1024;SDS011;501;48.214;11.350;2023-05-10T10:59:44;1.00;;;1.00;;
1024;SDS011;501;48.214;11.350;2023-05-10T11:02:33;3.37;;;1.23;;
1024;SDS011;501;48.214;11.350;2023-05-10T11:15:57;1.00;;;1.00;;
1024;SDS011;501;48.214;11.350;2023-05-10T11:18:28;2.27;;;1.23;;
1024;SDS011;501;48.214;11.350;2023-05-10T11:20:59;5.10;;;0.90;;
1024;SDS011;501;48.214;11.350;2023-05-10T11:25:58;1.30;;;0.83;;
1024;SDS011;501;48.214;11.350;2023-05-10T11:28:26;0.70;;;0.70;;
1024;SDS011;501;48.214;11.350;2023-05-10T11:30:53;2.23;;;1.10;;
1024;SDS011;501;48.214;11.350;2023-05-10T11:33:19;1.10;;;0.87;;
1024;SDS011;501;48.214;11.350;2023-05-10T11:35:45;0.90;;;0.90;;
1024;SDS011;501;48.214;11.350;2023-05-10T11:38:12;1.07;;;0.97;;
1024;SDS011;501;48.214;11.350;2023-05-10T11:40:39;0.90;;;0.90;;
1024;SDS011;501;48.214;11.350;2023-05-10T11:43:06;1.00;;;0.83;;
1024;SDS011;501;48.214;11.350;2023-05-10T11:45:35;1.87;;;1.10;;
1024;SDS011;501;48.214;11.350;2023-05-10T11:48:02;1.27;;;1.17;;
1024;SDS011;501;48.214;11.350;2023-05-10T11:50:28;2.10;;;1.50;;
1024;SDS011;501;48.214;11.350;2023-05-10T11:52:54;2.93;;;1.80;;
1024;SDS011;501;48.214;11.350;2023-05-10T11:55:21;1.97;;;1.40;;
1024;SDS011;501;48.214;11.350;2023-05-10T11:57:51;2.10;;;1.50;;
1024;SDS011;501;48.214;11.350;2023-05-10T12:00:17;2.03;;;1.73;;
1024;SDS011;501;48.214;11.350;2023-05-10T12:02:43;3.30;;;1.60;;
1024;SDS011;501;48.214;11.350;2023-05-10T12:05:09;6.43;;;1.60;;
1024;SDS011;501;48.214;11.350;2023-05-10T12:07:35;1.60;;;1.50;;
1024;SDS011;501;48.214;11.350;2023-05-10T12:10:10;1.73;;;1.63;;
1024;SDS011;501;48.214;11.350;2023-05-10T12:12:42;11.90;;;1.73;;
1024;SDS011;501;48.214;11.350;2023-05-10T12:15:20;0.97;;;0.70;;
1024;SDS011;501;48.214;11.350;2023-05-10T12:17:47;0.57;;;0.57;;
1024;SDS011;501;48.214;11.350;2023-05-10T12:20:17;0.67;;;0.67;;
1024;SDS011;501;48.214;11.350;2023-05-10T12:22:50;0.90;;;0.60;;
1024;SDS011;501;48.214;11.350;2023-05-10T12:25:18;0.50;;;0.47;;
1024;SDS011;501;48.214;11.350;2023-05-10T12:27:55;0.70;;;0.50;;
1024;SDS011;501;48.214;11.350;2023-05-10T12:30:23;0.90;;;0.70;;
1024;SDS011;501;48.214;11.350;2023-05-10T12:32:50;0.70;;;0.70;;
1024;SDS011;501;48.214;11.350;2023-05-10T12:35:17;0.67;;;0.43;;
1024;SDS011;501;48.214;11.350;2023-05-10T12:37:46;0.50;;;0.50;;
1024;SDS011;501;48.214;11.350;2023-05-10T12:40:13;0.67;;;0.67;;
1024;SDS011;501;48.214;11.350;2023-05-10T12:42:39;0.73;;;0.73;;
1024;SDS011;501;48.214;11.350;2023-05-10T12:45:05;1.27;;;1.00;;
1024;SDS011;501;48.214;11.350;2023-05-10T12:47:32;0.80;;;0.80;;
1024;SDS011;501;48.214;11.350;2023-05-10T12:49:59;1.13;;;0.90;;
1024;SDS011;501;48.214;11.350;2023-05-10T12:52:25;1.63;;;1.00;;
1024;SDS011;501;48.214;11.350;2023-05-10T12:54:52;1.73;;;1.13;;
1024;SDS011;501;48.214;11.350;2023-05-10T12:57:18;1.27;;;0.80;;
1024;SDS011;501;48.214;11.350;2023-05-10T12:59:45;1.50;;;1.20;;
1024;SDS011;501;48.214;11.350;2023-05-10T13:02:10;1.83;;;1.20;;
1024;SDS011;501;48.214;11.350;2023-05-10T13:04:36;1.17;;;0.90;;
1024;SDS011;501;48.214;11.350;2023-05-10T13:07:05;2.80;;;1.20;;
1024;SDS011;501;48.214;11.350;2023-05-10T13:09:31;2.97;;;0.90;;
1024;SDS011;501;48.214;11.350;2023-05-10T13:11:57;2.90;;;0.80;;
1024;SDS011;501;48.214;11.350;2023-05-10T13:14:24;0.93;;;0.90;;
1024;SDS011;501;48.214;11.350;2023-05-10T13:16:50;1.10;;;1.00;;
1024;SDS011;501;48.214;11.350;2023-05-10T13:19:16;1.60;;;0.90;;
1024;SDS011;501;48.214;11.350;2023-05-10T13:21:42;1.53;;;0.73;;
1024;SDS011;501;48.214;11.350;2023-05-10T13:24:09;3.90;;;1.50;;
1024;SDS011;501;48.214;11.350;2023-05-10T13:26:35;1.20;;;1.10;;
1024;SDS011;501;48.214;11.350;2023-05-10T13:29:01;2.03;;;1.20;;
1024;SDS011;501;48.214;11.350;2023-05-10T13:31:27;1.87;;;1.00;;
1024;SDS011;501;48.214;11.350;2023-05-10T13:33:53;2.30;;;1.20;;
1024;SDS011;501;48.214;11.350;2023-05-10T13:36:19;1.97;;;1.10;;
1024;SDS011;501;48.214;11.350;2023-05-10T13:38:44;1.03;;;0.90;;
1024;SDS011;501;48.214;11.350;2023-05-10T13:41:10;1.77;;;1.50;;
1024;SDS011;501;48.214;11.350;2023-05-10T13:43:36;0.87;;;0.87;;
1024;SDS011;501;48.214;11.350;2023-05-10T13:46:02;0.93;;;0.90;;
1024;SDS011;501;48.214;11.350;2023-05-10T13:48:27;1.73;;;1.23;;
1024;SDS011;501;48.214;11.350;2023-05-10T13:50:53;1.00;;;1.00;;
1024;SDS011;501;48.214;11.350;2023-05-10T13:53:19;1.10;;;1.00;;
1024;SDS011;501;48.214;11.350;2023-05-10T13:55:44;1.20;;;1.10;;
1024;SDS011;501;48.214;11.350;2023-05-10T13:58:10;3.43;;;0.80;;
1024;SDS011;501;48.214;11.350;2023-05-10T14:00:36;2.67;;;1.23;;
1024;SDS011;501;48.214;11.350;2023-05-10T14:03:01;1.10;;;0.90;;
1024;SDS011;501;48.214;11.350;2023-05-10T14:05:27;1.10;;;1.00;;
1024;SDS011;501;48.214;11.350;2023-05-10T14:07:53;1.50;;;1.40;;
1024;SDS011;501;48.214;11.350;2023-05-10T14:10:18;1.10;;;1.00;;
1024;SDS011;501;48.214;11.350;2023-05-10T14:12:44;1.40;;;1.20;;
1024;SDS011;501;48.214;11.350;2023-05-10T14:15:10;2.00;;;1.33;;
1024;SDS011;501;48.214;11.350;2023-05-10T14:17:36;1.83;;;1.17;;
1024;SDS011;501;48.214;11.350;2023-05-10T14:20:02;2.10;;;1.30;;
1024;SDS011;501;48.214;11.350;2023-05-10T14:22:28;0.80;;;0.80;;
1024;SDS011;501;48.214;11.350;2023-05-10T14:24:54;1.87;;;1.47;;
1024;SDS011;501;48.214;11.350;2023-05-10T14:27:20;1.73;;;0.80;;
1024;SDS011;501;48.214;11.350;2023-05-10T14:29:46;0.97;;;0.90;;
1024;SDS011;501;48.214;11.350;2023-05-10T14:32:12;3.37;;;1.23;;
1024;SDS011;501;48.214;11.350;2023-05-10T14:34:38;5.43;;;1.30;;
1024;SDS011;501;48.214;11.350;2023-05-10T14:37:03;1.57;;;0.80;;
1024;SDS011;501;48.214;11.350;2023-05-10T14:39:29;0.80;;;0.80;;
1024;SDS011;501;48.214;11.350;2023-05-10T14:41:55;1.33;;;1.03;;
1024;SDS011;501;48.214;11.350;2023-05-10T14:44:21;1.30;;;1.13;;
1024;SDS011;501;48.214;11.350;2023-05-10T14:46:47;2.63;;;0.83;;
1024;SDS011;501;48.214;11.350;2023-05-10T14:49:13;3.07;;;0.80;;
1024;SDS011;501;48.214;11.350;2023-05-10T14:51:39;1.07;;;1.00;;
1024;SDS011;501;48.214;11.350;2023-05-10T14:54:05;0.80;;;0.80;;
1024;SDS011;501;48.214;11.350;2023-05-10T14:56:31;1.20;;;1.10;;
1024;SDS011;501;48.214;11.350;2023-05-10T14:58:57;1.30;;;1.20;;
1024;SDS011;501;48.214;11.350;2023-05-10T15:01:22;1.23;;;1.10;;
1024;SDS011;501;48.214;11.350;2023-05-10T15:03:48;1.20;;;1.10;;
1024;SDS011;501;48.214;11.350;2023-05-10T15:06:14;1.20;;;1.10;;
1024;SDS011;501;48.214;11.350;2023-05-10T15:08:42;0.90;;;0.90;;
1024;SDS011;501;48.214;11.350;2023-05-10T15:11:08;1.10;;;1.10;;
1024;SDS011;501;48.214;11.350;2023-05-10T15:13:34;1.20;;;1.10;;
1024;SDS011;501;48.214;11.350;2023-05-10T15:15:59;1.27;;;1.17;;
1024;SDS011;501;48.214;11.350;2023-05-10T15:18:25;2.37;;;1.43;;
1024;SDS011;501;48.214;11.350;2023-05-10T15:20:51;1.60;;;1.30;;
1024;SDS011;501;48.214;11.350;2023-05-10T15:23:16;1.40;;;1.30;;
1024;SDS011;501;48.214;11.350;2023-05-10T15:25:42;1.33;;;1.23;;
1024;SDS011;501;48.214;11.350;2023-05-10T15:28:08;1.40;;;0.97;;
1024;SDS011;501;48.214;11.350;2023-05-10T15:30:33;0.90;;;0.90;;
1024;SDS011;501;48.214;11.350;2023-05-10T15:32:59;1.27;;;0.90;;
1024;SDS011;501;48.214;11.350;2023-05-10T15:35:25;1.10;;;1.00;;
1024;SDS011;501;48.214;11.350;2023-05-10T15:37:51;2.53;;;0.93;;
1024;SDS011;501;48.214;11.350;2023-05-10T15:40:17;0.50;;;0.50;;
1024;SDS011;501;48.214;11.350;2023-05-10T15:42:43;0.87;;;0.60;;
1024;SDS011;501;48.214;11.350;2023-05-10T15:45:08;1.30;;;1.00;;
1024;SDS011;501;48.214;11.350;2023-05-10T15:47:35;1.73;;;0.80;;
1024;SDS011;501;48.214;11.350;2023-05-10T15:52:49;1.90;;;1.10;;
1024;SDS011;501;48.214;11.350;2023-05-10T15:55:15;2.07;;;0.87;;
1024;SDS011;501;48.214;11.350;2023-05-10T15:57:42;0.60;;;0.60;;
1024;SDS011;501;48.214;11.350;2023-05-10T16:00:08;1.23;;;0.87;;
1024;SDS011;501;48.214;11.350;2023-05-10T16:02:35;1.50;;;1.10;;
1024;SDS011;501;48.214;11.350;2023-05-10T16:05:01;1.73;;;1.00;;
1024;SDS011;501;48.214;11.350;2023-05-10T16:07:27;1.63;;;1.53;;
1024;SDS011;501;48.214;11.350;2023-05-10T16:09:53;1.60;;;1.40;;
1024;SDS011;501;48.214;11.350;2023-05-10T16:12:21;4.87;;;1.80;;